sensor_id;sensor_type;location;lat;lon;timestamp;pressure;altitude;pressure_sealevel;temperature;humidity
59103;BME280;43999;51.660;5.616;2022-10-16T00:02:39;100817.56;;;12.27;100.00
59103;BME280;43999;51.660;5.616;2022-10-16T00:05:26;100814.19;;;12.25;100.00
59103;BME280;43999;51.660;5.616;2022-10-16T00:08:14;100815.13;;;12.24;100.00
59103;BME280;43999;51.660;5.616;2022-10-16T00:11:11;100812.50;;;12.24;100.00
59103;BME280;43999;51.660;5.616;2022-10-16T00:14:04;100811.66;;;12.23;100.00
59103;BME280;43999;51.660;5.616;2022-10-16T00:16:54;100818.72;;;12.23;100.00
59103;BME280;43999;51.660;5.616;2022-10-16T00:19:41;100817.00;;;12.22;100.00
59103;BME280;43999;51.660;5.616;2022-10-16T00:22:28;100813.75;;;12.18;100.00
59103;BME280;43999;51.660;5.616;2022-10-16T00:25:15;100812.97;;;12.16;100.00
59103;BME280;43999;51.660;5.616;2022-10-16T00:28:03;100824.44;;;12.15;100.00
59103;BME280;43999;51.660;5.616;2022-10-16T00:30:51;100819.28;;;12.13;100.00
59103;BME280;43999;51.660;5.616;2022-10-16T00:33:40;100818.59;;;12.10;100.00
59103;BME280;43999;51.660;5.616;2022-10-16T00:36:28;100821.41;;;12.07;100.00
59103;BME280;43999;51.660;5.616;2022-10-16T00:39:16;100824.03;;;12.07;100.00
59103;BME280;43999;51.660;5.616;2022-10-16T00:42:06;100819.81;;;12.04;100.00
59103;BME280;43999;51.660;5.616;2022-10-16T00:44:57;100822.44;;;12.04;100.00
59103;BME280;43999;51.660;5.616;2022-10-16T00:47:46;100826.94;;;12.02;100.00
59103;BME280;43999;51.660;5.616;2022-10-16T00:50:36;100820.00;;;12.01;100.00
59103;BME280;43999;51.660;5.616;2022-10-16T00:53:25;100823.56;;;12.00;100.00
59103;BME280;43999;51.660;5.616;2022-10-16T00:56:14;100825.34;;;11.99;100.00
59103;BME280;43999;51.660;5.616;2022-10-16T00:59:06;100815.88;;;11.97;100.00
59103;BME280;43999;51.660;5.616;2022-10-16T01:02:02;100832.47;;;11.97;100.00
59103;BME280;43999;51.660;5.616;2022-10-16T01:04:52;100822.91;;;11.96;100.00
59103;BME280;43999;51.660;5.616;2022-10-16T01:07:59;100821.22;;;11.95;100.00
59103;BME280;43999;51.660;5.616;2022-10-16T01:17:58;100811.72;;;11.93;100.00
59103;BME280;43999;51.660;5.616;2022-10-16T01:21:08;100811.97;;;11.88;100.00
59103;BME280;43999;51.660;5.616;2022-10-16T01:24:31;100818.09;;;11.89;100.00
59103;BME280;43999;51.660;5.616;2022-10-16T01:27:30;100811.88;;;11.90;100.00
59103;BME280;43999;51.660;5.616;2022-10-16T01:30:25;100833.66;;;11.92;100.00
59103;BME280;43999;51.660;5.616;2022-10-16T01:33:22;100827.47;;;11.93;100.00
59103;BME280;43999;51.660;5.616;2022-10-16T01:36:31;100810.88;;;11.92;100.00
59103;BME280;43999;51.660;5.616;2022-10-16T01:39:29;100819.41;;;11.96;100.00
59103;BME280;43999;51.660;5.616;2022-10-16T01:42:24;100819.41;;;11.96;100.00
59103;BME280;43999;51.660;5.616;2022-10-16T01:45:19;100817.56;;;11.98;100.00
59103;BME280;43999;51.660;5.616;2022-10-16T01:48:10;100809.78;;;11.96;100.00
59103;BME280;43999;51.660;5.616;2022-10-16T01:51:09;100821.13;;;11.97;100.00
59103;BME280;43999;51.660;5.616;2022-10-16T01:54:01;100822.91;;;11.96;100.00
59103;BME280;43999;51.660;5.616;2022-10-16T01:56:50;100819.31;;;11.97;100.00
59103;BME280;43999;51.660;5.616;2022-10-16T01:59:46;100822.72;;;11.99;100.00
59103;BME280;43999;51.660;5.616;2022-10-16T02:02:41;100821.84;;;11.99;100.00
59103;BME280;43999;51.660;5.616;2022-10-16T02:08:33;100832.47;;;11.97;100.00
59103;BME280;43999;51.660;5.616;2022-10-16T02:11:21;100824.50;;;11.99;100.00
59103;BME280;43999;51.660;5.616;2022-10-16T02:14:09;100826.19;;;12.00;100.00
59103;BME280;43999;51.660;5.616;2022-10-16T02:16:56;100833.22;;;11.99;100.00
59103;BME280;43999;51.660;5.616;2022-10-16T02:19:46;100843.72;;;11.99;100.00
59103;BME280;43999;51.660;5.616;2022-10-16T02:22:42;100834.16;;;11.98;100.00
59103;BME280;43999;51.660;5.616;2022-10-16T02:25:38;100836.88;;;11.97;100.00
59103;BME280;43999;51.660;5.616;2022-10-16T02:28:19;100829.94;;;11.96;100.00
59103;BME280;43999;51.660;5.616;2022-10-16T02:30:58;100826.56;;;11.94;100.00
59103;BME280;43999;51.660;5.616;2022-10-16T02:33:29;100827.47;;;11.93;100.00
59103;BME280;43999;51.660;5.616;2022-10-16T02:35:58;100823.16;;;11.92;100.00
59103;BME280;43999;51.660;5.616;2022-10-16T02:38:27;100820.72;;;11.89;100.00
59103;BME280;43999;51.660;5.616;2022-10-16T02:40:57;100830.34;;;11.88;100.00
59103;BME280;43999;51.660;5.616;2022-10-16T02:43:25;100825.31;;;11.85;100.00
59103;BME280;43999;51.660;5.616;2022-10-16T02:45:53;100837.56;;;11.84;100.00
59103;BME280;43999;51.660;5.616;2022-10-16T02:48:20;100849.03;;;11.83;100.00
59103;BME280;43999;51.660;5.616;2022-10-16T02:50:47;100842.91;;;11.83;100.00
59103;BME280;43999;51.660;5.616;2022-10-16T02:53:15;100828.22;;;11.80;100.00
59103;BME280;43999;51.660;5.616;2022-10-16T02:55:44;100823.97;;;11.78;100.00
59103;BME280;43999;51.660;5.616;2022-10-16T02:58:11;100824.91;;;11.77;100.00
59103;BME280;43999;51.660;5.616;2022-10-16T03:00:39;100819.56;;;11.78;100.00
59103;BME280;43999;51.660;5.616;2022-10-16T03:03:06;100811.78;;;11.77;100.00
59103;BME280;43999;51.660;5.616;2022-10-16T03:05:33;100827.63;;;11.75;100.00
59103;BME280;43999;51.660;5.616;2022-10-16T03:08:01;100830.34;;;11.74;100.00
59103;BME280;43999;51.660;5.616;2022-10-16T03:10:28;100837.47;;;11.72;100.00
59103;BME280;43999;51.660;5.616;2022-10-16T03:12:55;100837.56;;;11.70;100.00
59103;BME280;43999;51.660;5.616;2022-10-16T03:15:22;100838.47;;;11.69;100.00
59103;BME280;43999;51.660;5.616;2022-10-16T03:17:50;100837.72;;;11.67;100.00
59103;BME280;43999;51.660;5.616;2022-10-16T03:20:17;100840.34;;;11.67;100.00
59103;BME280;43999;51.660;5.616;2022-10-16T03:22:44;100841.28;;;11.66;100.00
59103;BME280;43999;51.660;5.616;2022-10-16T03:25:12;100854.50;;;11.64;100.00
59103;BME280;43999;51.660;5.616;2022-10-16T03:27:39;100851.13;;;11.62;100.00
59103;BME280;43999;51.660;5.616;2022-10-16T03:30:07;100857.22;;;11.63;100.00
59103;BME280;43999;51.660;5.616;2022-10-16T03:32:35;100864.25;;;11.62;100.00
59103;BME280;43999;51.660;5.616;2022-10-16T03:35:03;100858.25;;;11.60;100.00
59103;BME280;43999;51.660;5.616;2022-10-16T03:37:30;100866.22;;;11.59;100.00
59103;BME280;43999;51.660;5.616;2022-10-16T03:39:57;100867.03;;;11.59;100.00
59103;BME280;43999;51.660;5.616;2022-10-16T03:42:26;100869.75;;;11.58;100.00
59103;BME280;43999;51.660;5.616;2022-10-16T03:44:53;100872.47;;;11.56;100.00
59103;BME280;43999;51.660;5.616;2022-10-16T03:47:20;100862.81;;;11.57;100.00
59103;BME280;43999;51.660;5.616;2022-10-16T03:49:50;100859.44;;;11.55;100.00
59103;BME280;43999;51.660;5.616;2022-10-16T03:52:17;100863.84;;;11.54;100.00
59103;BME280;43999;51.660;5.616;2022-10-16T03:54:49;100850.81;;;11.53;100.00
59103;BME280;43999;51.660;5.616;2022-10-16T03:57:17;100862.16;;;11.53;100.00
59103;BME280;43999;51.660;5.616;2022-10-16T03:59:44;100866.66;;;11.51;100.00
59103;BME280;43999;51.660;5.616;2022-10-16T04:02:13;100870.09;;;11.52;100.00
59103;BME280;43999;51.660;5.616;2022-10-16T04:04:41;100869.19;;;11.53;100.00
59103;BME280;43999;51.660;5.616;2022-10-16T04:07:08;100872.72;;;11.52;100.00
59103;BME280;43999;51.660;5.616;2022-10-16T04:09:35;100867.56;;;11.50;100.00
59103;BME280;43999;51.660;5.616;2022-10-16T04:12:02;100879.78;;;11.51;100.00
59103;BME280;43999;51.660;5.616;2022-10-16T04:14:32;100885.94;;;11.50;100.00
59103;BME280;43999;51.660;5.616;2022-10-16T04:16:59;100885.09;;;11.50;100.00
59103;BME280;43999;51.660;5.616;2022-10-16T04:19:26;100884.31;;;11.47;100.00
59103;BME280;43999;51.660;5.616;2022-10-16T04:21:54;100889.56;;;11.47;100.00
59103;BME280;43999;51.660;5.616;2022-10-16T04:24:21;100883.50;;;11.47;100.00
59103;BME280;43999;51.660;5.616;2022-10-16T04:26:48;100897.44;;;11.47;100.00
59103;BME280;43999;51.660;5.616;2022-10-16T04:29:16;100895.69;;;11.48;100.00
59103;BME280;43999;51.660;5.616;2022-10-16T04:31:44;100901.88;;;11.47;100.00
59103;BME280;43999;51.660;5.616;2022-10-16T04:34:11;100902.59;;;11.49;100.00
59103;BME280;43999;51.660;5.616;2022-10-16T04:36:39;100896.53;;;11.48;100.00
59103;BME280;43999;51.660;5.616;2022-10-16T04:39:06;100893.81;;;11.50;100.00
59103;BME280;43999;51.660;5.616;2022-10-16T04:41:33;100888.47;;;11.52;100.00
59103;BME280;43999;51.660;5.616;2022-10-16T04:44:01;100900.75;;;11.51;100.00
59103;BME280;43999;51.660;5.616;2022-10-16T04:46:28;100905.06;;;11.52;100.00
59103;BME280;43999;51.660;5.616;2022-10-16T04:48:55;100906.00;;;11.51;100.00
59103;BME280;43999;51.660;5.616;2022-10-16T04:51:22;100904.22;;;11.52;100.00
59103;BME280;43999;51.660;5.616;2022-10-16T04:53:49;100912.94;;;11.52;100.00
59103;BME280;43999;51.660;5.616;2022-10-16T04:56:17;100912.94;;;11.52;100.00
59103;BME280;43999;51.660;5.616;2022-10-16T04:58:44;100915.56;;;11.52;100.00
59103;BME280;43999;51.660;5.616;2022-10-16T05:01:12;100914.63;;;11.53;100.00
59103;BME280;43999;51.660;5.616;2022-10-16T05:03:39;100921.59;;;11.54;100.00
59103;BME280;43999;51.660;5.616;2022-10-16T05:06:07;100916.44;;;11.53;100.00
59103;BME280;43999;51.660;5.616;2022-10-16T05:08:34;100922.50;;;11.53;100.00
59103;BME280;43999;51.660;5.616;2022-10-16T05:11:04;100926.91;;;11.53;100.00
59103;BME280;43999;51.660;5.616;2022-10-16T05:13:31;100931.31;;;11.52;100.00
59103;BME280;43999;51.660;5.616;2022-10-16T05:15:58;100930.47;;;11.52;100.00
59103;BME280;43999;51.660;5.616;2022-10-16T05:18:26;100940.13;;;11.51;100.00
59103;BME280;43999;51.660;5.616;2022-10-16T05:20:55;100948.09;;;11.50;100.00
59103;BME280;43999;51.660;5.616;2022-10-16T05:23:22;100949.84;;;11.49;100.00
59103;BME280;43999;51.660;5.616;2022-10-16T05:25:56;100946.47;;;11.47;100.00
59103;BME280;43999;51.660;5.616;2022-10-16T05:28:27;100953.50;;;11.46;100.00
59103;BME280;43999;51.660;5.616;2022-10-16T05:30:56;100963.13;;;11.46;100.00
59103;BME280;43999;51.660;5.616;2022-10-16T05:33:25;100962.38;;;11.44;100.00
59103;BME280;43999;51.660;5.616;2022-10-16T05:35:52;100968.47;;;11.44;100.00
59103;BME280;43999;51.660;5.616;2022-10-16T05:38:19;100965.84;;;11.44;100.00
59103;BME280;43999;51.660;5.616;2022-10-16T05:40:53;100972.78;;;11.45;100.00
59103;BME280;43999;51.660;5.616;2022-10-16T05:43:20;100983.47;;;11.42;100.00
59103;BME280;43999;51.660;5.616;2022-10-16T05:46:02;100985.25;;;11.42;100.00
59103;BME280;43999;51.660;5.616;2022-10-16T05:48:32;100986.16;;;11.41;100.00
59103;BME280;43999;51.660;5.616;2022-10-16T05:51:04;101001.91;;;11.41;100.00
59103;BME280;43999;51.660;5.616;2022-10-16T05:53:35;101002.81;;;11.40;100.00
59103;BME280;43999;51.660;5.616;2022-10-16T05:56:06;101002.91;;;11.38;100.00
59103;BME280;43999;51.660;5.616;2022-10-16T05:58:37;101018.66;;;11.38;100.00
59103;BME280;43999;51.660;5.616;2022-10-16T06:01:15;101022.22;;;11.37;100.00
59103;BME280;43999;51.660;5.616;2022-10-16T06:03:44;101024.84;;;11.37;100.00
59103;BME280;43999;51.660;5.616;2022-10-16T06:06:21;101028.47;;;11.35;100.00
59103;BME280;43999;51.660;5.616;2022-10-16T06:08:51;101033.66;;;11.36;100.00
59103;BME280;43999;51.660;5.616;2022-10-16T06:11:23;101035.34;;;11.37;100.00
59103;BME280;43999;51.660;5.616;2022-10-16T06:13:58;101036.25;;;11.36;100.00
59103;BME280;43999;51.660;5.616;2022-10-16T06:16:29;101042.34;;;11.37;100.00
59103;BME280;43999;51.660;5.616;2022-10-16T06:18:56;101043.31;;;11.36;100.00
59103;BME280;43999;51.660;5.616;2022-10-16T06:21:26;101042.44;;;11.35;100.00
59103;BME280;43999;51.660;5.616;2022-10-16T06:23:56;101049.38;;;11.36;100.00
59103;BME280;43999;51.660;5.616;2022-10-16T06:26:27;101051.34;;;11.33;100.00
59103;BME280;43999;51.660;5.616;2022-10-16T06:28:58;101059.03;;;11.36;100.00
59103;BME280;43999;51.660;5.616;2022-10-16T06:31:27;101056.41;;;11.36;100.00
59103;BME280;43999;51.660;5.616;2022-10-16T06:34:00;101054.63;;;11.36;100.00
59103;BME280;43999;51.660;5.616;2022-10-16T06:36:27;101065.13;;;11.36;100.00
59103;BME280;43999;51.660;5.616;2022-10-16T06:38:55;101065.03;;;11.38;100.00
59103;BME280;43999;51.660;5.616;2022-10-16T06:41:23;101070.28;;;11.38;100.00
59103;BME280;43999;51.660;5.616;2022-10-16T06:43:50;101072.00;;;11.39;100.00
59103;BME280;43999;51.660;5.616;2022-10-16T06:46:22;101082.31;;;11.42;100.00
59103;BME280;43999;51.660;5.616;2022-10-16T06:48:50;101088.16;;;11.47;100.00
59103;BME280;43999;51.660;5.616;2022-10-16T06:51:21;101094.09;;;11.51;100.00
59103;BME280;43999;51.660;5.616;2022-10-16T06:53:55;101092.91;;;11.56;100.00
59103;BME280;43999;51.660;5.616;2022-10-16T06:56:31;101100.38;;;11.64;100.00
59103;BME280;43999;51.660;5.616;2022-10-16T06:58:59;101100.81;;;11.72;100.00
59103;BME280;43999;51.660;5.616;2022-10-16T07:01:28;101105.63;;;11.80;100.00
59103;BME280;43999;51.660;5.616;2022-10-16T07:03:57;101104.38;;;11.87;100.00
59103;BME280;43999;51.660;5.616;2022-10-16T07:06:26;101100.50;;;11.94;100.00
59103;BME280;43999;51.660;5.616;2022-10-16T07:08:56;101109.66;;;12.03;100.00
59103;BME280;43999;51.660;5.616;2022-10-16T07:11:24;101115.41;;;12.10;100.00
59103;BME280;43999;51.660;5.616;2022-10-16T07:13:52;101121.94;;;12.18;100.00
59103;BME280;43999;51.660;5.616;2022-10-16T07:16:25;101124.97;;;12.27;100.00
59103;BME280;43999;51.660;5.616;2022-10-16T07:18:55;101124.53;;;12.34;100.00
59103;BME280;43999;51.660;5.616;2022-10-16T07:21:29;101125.78;;;12.43;100.00
59103;BME280;43999;51.660;5.616;2022-10-16T07:24:03;101141.13;;;12.51;100.00
59103;BME280;43999;51.660;5.616;2022-10-16T07:26:35;101143.50;;;12.55;100.00
59103;BME280;43999;51.660;5.616;2022-10-16T07:29:12;101149.25;;;12.62;100.00
59103;BME280;43999;51.660;5.616;2022-10-16T07:31:45;101152.72;;;12.63;100.00
59103;BME280;43999;51.660;5.616;2022-10-16T07:34:18;101153.31;;;12.68;100.00
59103;BME280;43999;51.660;5.616;2022-10-16T07:36:49;101162.63;;;12.73;100.00
59103;BME280;43999;51.660;5.616;2022-10-16T07:39:17;101170.25;;;12.78;100.00
59103;BME280;43999;51.660;5.616;2022-10-16T07:41:45;101175.44;;;12.80;100.00
59103;BME280;43999;51.660;5.616;2022-10-16T07:44:12;101174.47;;;12.81;100.00
59103;BME280;43999;51.660;5.616;2022-10-16T07:46:39;101179.63;;;12.82;100.00
59103;BME280;43999;51.660;5.616;2022-10-16T07:49:08;101184.72;;;12.85;100.00
59103;BME280;43999;51.660;5.616;2022-10-16T07:51:35;101185.50;;;12.87;100.00
59103;BME280;43999;51.660;5.616;2022-10-16T07:54:02;101188.78;;;12.91;100.00
59103;BME280;43999;51.660;5.616;2022-10-16T07:56:31;101185.16;;;12.94;100.00
59103;BME280;43999;51.660;5.616;2022-10-16T07:58:59;101186.63;;;12.98;100.00
59103;BME280;43999;51.660;5.616;2022-10-16T08:01:27;101191.63;;;13.02;100.00
59103;BME280;43999;51.660;5.616;2022-10-16T08:03:54;101199.25;;;13.07;100.00
59103;BME280;43999;51.660;5.616;2022-10-16T08:06:22;101208.75;;;13.09;100.00
59103;BME280;43999;51.660;5.616;2022-10-16T08:08:57;101201.63;;;13.12;100.00
59103;BME280;43999;51.660;5.616;2022-10-16T08:11:26;101216.19;;;13.17;100.00
59103;BME280;43999;51.660;5.616;2022-10-16T08:13:54;101209.06;;;13.19;100.00
59103;BME280;43999;51.660;5.616;2022-10-16T08:16:21;101214.22;;;13.21;100.00
59103;BME280;43999;51.660;5.616;2022-10-16T08:18:49;101224.66;;;13.22;100.00
59103;BME280;43999;51.660;5.616;2022-10-16T08:21:21;101218.28;;;13.26;100.00
59103;BME280;43999;51.660;5.616;2022-10-16T08:23:51;101224.22;;;13.30;100.00
59103;BME280;43999;51.660;5.616;2022-10-16T08:26:26;101226.59;;;13.35;100.00
59103;BME280;43999;51.660;5.616;2022-10-16T08:28:54;101236.88;;;13.39;100.00
59103;BME280;43999;51.660;5.616;2022-10-16T08:31:23;101249.75;;;13.44;100.00
59103;BME280;43999;51.660;5.616;2022-10-16T08:33:51;101248.56;;;13.50;100.00
59103;BME280;43999;51.660;5.616;2022-10-16T08:36:19;101246.56;;;13.53;100.00
59103;BME280;43999;51.660;5.616;2022-10-16T08:38:50;101251.56;;;13.58;100.00
59103;BME280;43999;51.660;5.616;2022-10-16T08:41:36;101257.47;;;13.61;100.00
59103;BME280;43999;51.660;5.616;2022-10-16T08:47:20;101261.16;;;13.73;100.00
59103;BME280;43999;51.660;5.616;2022-10-16T08:50:02;101270.50;;;13.79;100.00
59103;BME280;43999;51.660;5.616;2022-10-16T08:52:41;101268.22;;;13.87;100.00
59103;BME280;43999;51.660;5.616;2022-10-16T08:55:58;101277.28;;;13.97;100.00
59103;BME280;43999;51.660;5.616;2022-10-16T08:58:30;101281.22;;;14.05;100.00
59103;BME280;43999;51.660;5.616;2022-10-16T09:01:01;101277.38;;;14.10;100.00
59103;BME280;43999;51.660;5.616;2022-10-16T09:03:49;101279.63;;;14.16;100.00
59103;BME280;43999;51.660;5.616;2022-10-16T09:18:34;101298.34;;;14.41;100.00
59103;BME280;43999;51.660;5.616;2022-10-16T09:21:22;101308.59;;;14.45;100.00
59103;BME280;43999;51.660;5.616;2022-10-16T09:23:51;101307.63;;;14.46;100.00
59103;BME280;43999;51.660;5.616;2022-10-16T09:26:19;101305.66;;;14.50;100.00
59103;BME280;43999;51.660;5.616;2022-10-16T09:28:52;101310.63;;;14.55;100.00
59103;BME280;43999;51.660;5.616;2022-10-16T09:31:22;101303.50;;;14.57;100.00
59103;BME280;43999;51.660;5.616;2022-10-16T09:34:00;101304.16;;;14.60;100.00
59103;BME280;43999;51.660;5.616;2022-10-16T09:36:42;101322.25;;;14.66;100.00
59103;BME280;43999;51.660;5.616;2022-10-16T09:39:12;101313.09;;;14.72;100.00
59103;BME280;43999;51.660;5.616;2022-10-16T09:41:44;101317.13;;;14.78;100.00
59103;BME280;43999;51.660;5.616;2022-10-16T09:44:34;101314.84;;;14.86;100.00
59103;BME280;43999;51.660;5.616;2022-10-16T09:47:15;101315.94;;;14.96;100.00
59103;BME280;43999;51.660;5.616;2022-10-16T09:49:57;101316.59;;;15.00;100.00
59103;BME280;43999;51.660;5.616;2022-10-16T09:52:33;101324.84;;;15.08;100.00
59103;BME280;43999;51.660;5.616;2022-10-16T09:55:15;101317.38;;;15.15;100.00
59103;BME280;43999;51.660;5.616;2022-10-16T09:57:54;101323.84;;;15.23;100.00
59103;BME280;43999;51.660;5.616;2022-10-16T10:00:24;101328.72;;;15.30;100.00
59103;BME280;43999;51.660;5.616;2022-10-16T10:02:53;101331.69;;;15.38;100.00
59103;BME280;43999;51.660;5.616;2022-10-16T10:05:28;101332.16;;;15.45;100.00
59103;BME280;43999;51.660;5.616;2022-10-16T10:08:03;101328.25;;;15.50;100.00
59103;BME280;43999;51.660;5.616;2022-10-16T10:10:40;101336.63;;;15.57;100.00
59103;BME280;43999;51.660;5.616;2022-10-16T10:13:24;101333.47;;;15.65;100.00
59103;BME280;43999;51.660;5.616;2022-10-16T10:15:54;101338.47;;;15.82;100.00
59103;BME280;43999;51.660;5.616;2022-10-16T10:18:22;101336.97;;;16.29;100.00
59103;BME280;43999;51.660;5.616;2022-10-16T10:21:02;101335.13;;;16.56;100.00
59103;BME280;43999;51.660;5.616;2022-10-16T10:23:32;101338.38;;;17.09;100.00
59103;BME280;43999;51.660;5.616;2022-10-16T10:26:12;101344.28;;;17.72;100.00
59103;BME280;43999;51.660;5.616;2022-10-16T10:35:31;101360.63;;;18.47;94.89
59103;BME280;43999;51.660;5.616;2022-10-16T10:47:27;101360.66;;;17.78;96.21
59103;BME280;43999;51.660;5.616;2022-10-16T10:53:48;101355.25;;;17.44;95.52
59103;BME280;43999;51.660;5.616;2022-10-16T10:56:50;101357.00;;;17.32;95.67
59103;BME280;43999;51.660;5.616;2022-10-16T11:00:13;101357.56;;;17.24;94.00
59103;BME280;43999;51.660;5.616;2022-10-16T11:08:55;101374.53;;;17.22;94.75
59103;BME280;43999;51.660;5.616;2022-10-16T11:18:13;101377.13;;;17.59;89.67
59103;BME280;43999;51.660;5.616;2022-10-16T11:20:54;101375.56;;;17.67;90.69
59103;BME280;43999;51.660;5.616;2022-10-16T11:23:36;101373.91;;;17.78;91.59
59103;BME280;43999;51.660;5.616;2022-10-16T11:26:21;101380.00;;;17.91;90.11
59103;BME280;43999;51.660;5.616;2022-10-16T11:28:55;101374.94;;;17.99;89.80
59103;BME280;43999;51.660;5.616;2022-10-16T11:31:54;101379.19;;;18.02;88.37
59103;BME280;43999;51.660;5.616;2022-10-16T11:34:51;101367.22;;;17.96;90.82
59103;BME280;43999;51.660;5.616;2022-10-16T11:37:32;101376.69;;;17.87;90.83
59103;BME280;43999;51.660;5.616;2022-10-16T11:40:23;101381.97;;;17.76;90.70
59103;BME280;43999;51.660;5.616;2022-10-16T11:43:15;101380.38;;;17.62;88.12
59103;BME280;43999;51.660;5.616;2022-10-16T11:45:52;101385.00;;;17.47;88.81
59103;BME280;43999;51.660;5.616;2022-10-16T11:48:54;101387.16;;;17.42;89.94
59103;BME280;43999;51.660;5.616;2022-10-16T11:51:59;101388.41;;;17.49;93.14
59103;BME280;43999;51.660;5.616;2022-10-16T11:57:24;101395.13;;;17.78;87.46
59103;BME280;43999;51.660;5.616;2022-10-16T12:00:05;101392.13;;;17.82;87.77
59103;BME280;43999;51.660;5.616;2022-10-16T12:08:34;101398.13;;;17.84;84.77
59103;BME280;43999;51.660;5.616;2022-10-16T12:16:55;101392.31;;;17.68;86.60
59103;BME280;43999;51.660;5.616;2022-10-16T12:19:29;101388.66;;;17.58;88.22
59103;BME280;43999;51.660;5.616;2022-10-16T12:22:02;101396.38;;;17.61;89.20
59103;BME280;43999;51.660;5.616;2022-10-16T12:24:41;101407.22;;;17.58;89.83
59103;BME280;43999;51.660;5.616;2022-10-16T12:27:31;101414.44;;;17.55;89.56
59103;BME280;43999;51.660;5.616;2022-10-16T12:30:04;101411.25;;;17.50;88.74
59103;BME280;43999;51.660;5.616;2022-10-16T12:32:37;101412.47;;;17.46;88.09
59103;BME280;43999;51.660;5.616;2022-10-16T12:35:35;101404.88;;;17.42;88.71
59103;BME280;43999;51.660;5.616;2022-10-16T12:38:38;101403.28;;;17.39;89.55
59103;BME280;43999;51.660;5.616;2022-10-16T12:41:35;101406.25;;;17.34;89.45
59103;BME280;43999;51.660;5.616;2022-10-16T12:44:24;101412.63;;;17.32;89.26
59103;BME280;43999;51.660;5.616;2022-10-16T12:47:00;101403.00;;;17.31;89.08
59103;BME280;43999;51.660;5.616;2022-10-16T12:51:55;101393.59;;;17.27;89.28
59103;BME280;43999;51.660;5.616;2022-10-16T12:54:46;101397.41;;;17.23;89.69
59103;BME280;43999;51.660;5.616;2022-10-16T12:57:52;101399.94;;;17.24;90.67
59103;BME280;43999;51.660;5.616;2022-10-16T13:00:50;101406.09;;;17.25;91.75
59103;BME280;43999;51.660;5.616;2022-10-16T13:06:44;101407.84;;;17.37;91.42
59103;BME280;43999;51.660;5.616;2022-10-16T13:18:52;101406.94;;;17.85;88.37
59103;BME280;43999;51.660;5.616;2022-10-16T13:28:05;101410.94;;;18.37;85.93
59103;BME280;43999;51.660;5.616;2022-10-16T13:30:42;101406.00;;;18.44;85.97
59103;BME280;43999;51.660;5.616;2022-10-16T13:33:32;101397.03;;;18.45;84.54
59103;BME280;43999;51.660;5.616;2022-10-16T13:36:03;101414.19;;;18.41;83.33
59103;BME280;43999;51.660;5.616;2022-10-16T13:38:34;101411.19;;;18.34;83.24
59103;BME280;43999;51.660;5.616;2022-10-16T13:41:18;101421.41;;;18.27;84.02
59103;BME280;43999;51.660;5.616;2022-10-16T13:43:51;101421.88;;;18.21;83.54
59103;BME280;43999;51.660;5.616;2022-10-16T13:46:24;101425.00;;;18.15;83.42
59103;BME280;43999;51.660;5.616;2022-10-16T13:49:05;101429.09;;;18.08;83.48
59103;BME280;43999;51.660;5.616;2022-10-16T13:51:39;101431.25;;;18.03;84.54
59103;BME280;43999;51.660;5.616;2022-10-16T13:54:10;101424.88;;;18.05;84.21
59103;BME280;43999;51.660;5.616;2022-10-16T13:56:41;101423.91;;;18.06;83.86
59103;BME280;43999;51.660;5.616;2022-10-16T13:59:34;101424.97;;;18.04;84.46
59103;BME280;43999;51.660;5.616;2022-10-16T14:02:34;101426.16;;;18.00;84.93
59103;BME280;43999;51.660;5.616;2022-10-16T14:05:09;101428.09;;;17.98;86.07
59103;BME280;43999;51.660;5.616;2022-10-16T14:07:38;101430.75;;;17.98;86.61
59103;BME280;43999;51.660;5.616;2022-10-16T14:10:30;101431.47;;;18.00;86.32
59103;BME280;43999;51.660;5.616;2022-10-16T14:13:05;101431.13;;;18.04;87.09
59103;BME280;43999;51.660;5.616;2022-10-16T14:15:35;101438.25;;;18.15;87.81
59103;BME280;43999;51.660;5.616;2022-10-16T14:18:04;101432.25;;;18.24;86.25
59103;BME280;43999;51.660;5.616;2022-10-16T14:20:33;101435.19;;;18.33;86.84
59103;BME280;43999;51.660;5.616;2022-10-16T14:23:36;101433.13;;;18.36;86.00
59103;BME280;43999;51.660;5.616;2022-10-16T14:26:17;101430.09;;;18.30;85.93
59103;BME280;43999;51.660;5.616;2022-10-16T14:28:48;101433.34;;;18.22;86.69
59103;BME280;43999;51.660;5.616;2022-10-16T14:31:33;101420.56;;;18.16;86.38
59103;BME280;43999;51.660;5.616;2022-10-16T14:34:34;101417.50;;;18.09;86.20
59103;BME280;43999;51.660;5.616;2022-10-16T14:37:22;101432.69;;;18.07;86.75
59103;BME280;43999;51.660;5.616;2022-10-16T14:39:55;101422.22;;;18.05;88.16
59103;BME280;43999;51.660;5.616;2022-10-16T14:42:25;101425.94;;;18.03;88.30
59103;BME280;43999;51.660;5.616;2022-10-16T14:44:54;101429.56;;;18.02;88.20
59103;BME280;43999;51.660;5.616;2022-10-16T14:47:25;101418.31;;;17.98;88.56
59103;BME280;43999;51.660;5.616;2022-10-16T14:49:54;101412.06;;;17.99;88.65
59103;BME280;43999;51.660;5.616;2022-10-16T14:52:24;101409.66;;;17.96;88.21
59103;BME280;43999;51.660;5.616;2022-10-16T14:54:52;101410.59;;;17.95;88.26
59103;BME280;43999;51.660;5.616;2022-10-16T14:57:36;101410.59;;;17.95;88.48
59103;BME280;43999;51.660;5.616;2022-10-16T15:00:18;101402.41;;;17.98;88.91
59103;BME280;43999;51.660;5.616;2022-10-16T15:02:49;101414.00;;;17.97;88.98
59103;BME280;43999;51.660;5.616;2022-10-16T15:05:26;101417.59;;;17.96;89.11
59103;BME280;43999;51.660;5.616;2022-10-16T15:07:54;101415.06;;;17.95;89.26